Time;durP1;ratioP1;P1;durP2;ratioP2;P2;SDS_P1;SDS_P2;PMS_P1;PMS_P2;Temp;Humidity;BMP_temperature;BMP_pressure;BME280_temperature;BME280_humidity;BME280_pressure;Samples;Min_cycle;Max_cycle;Signal;HPM_P1;HPM_P2
2021/08/17 00:01:19;;;;;;;1.88;0.60;;;;;;;;;;6162529;23;20002;-96
2021/08/17 00:03:50;;;;;;;1.40;0.50;;;;;;;;;;6160159;23;20013;-96
2021/08/17 00:06:18;;;;;;;1.33;0.68;;;;;;;;;;6168023;23;20005;-96
2021/08/17 00:08:45;;;;;;;0.68;0.43;;;;;;;;;;6159630;23;20037;-96
2021/08/17 00:11:11;;;;;;;1.05;0.63;;;;;;;;;;6161041;23;20006;-96
2021/08/17 00:13:38;;;;;;;2.90;0.80;;;;;;;;;;6160408;23;20001;-96
2021/08/17 00:16:04;;;;;;;1.52;0.68;;;;;;;;;;6160226;23;20006;-95
2021/08/17 00:18:30;;;;;;;0.90;0.70;;;;;;;;;;6157086;23;20084;-96
2021/08/17 00:20:56;;;;;;;1.40;0.50;;;;;;;;;;6160568;23;20008;-96
2021/08/17 00:23:22;;;;;;;1.20;0.70;;;;;;;;;;6161099;23;20008;-96
2021/08/17 00:25:48;;;;;;;5.53;0.60;;;;;;;;;;6160626;23;20009;-95
2021/08/17 00:28:14;;;;;;;2.33;1.50;;;;;;;;;;6161861;23;20052;-96
2021/08/17 00:30:41;;;;;;;1.77;0.73;;;;;;;;;;6161199;23;20006;-96
2021/08/17 00:33:07;;;;;;;4.95;0.65;;;;;;;;;;6135531;23;20012;-96
2021/08/17 00:35:35;;;;;;;2.50;0.80;;;;;;;;;;6159540;23;20093;-96
2021/08/17 00:38:02;;;;;;;1.15;0.60;;;;;;;;;;6161841;23;20001;-96
2021/08/17 00:40:28;;;;;;;1.85;1.45;;;;;;;;;;6160779;23;20001;-95
2021/08/17 00:42:54;;;;;;;2.80;0.60;;;;;;;;;;6163054;23;20005;-96
2021/08/17 00:45:26;;;;;;;1.73;0.70;;;;;;;;;;6164630;23;20013;-96
2021/08/17 00:47:53;;;;;;;1.33;0.65;;;;;;;;;;6164721;23;20065;-96
2021/08/17 00:50:30;;;;;;;0.60;0.47;;;;;;;;;;6135715;23;20093;-96
2021/08/17 00:52:58;;;;;;;1.98;0.98;;;;;;;;;;6135325;23;20109;-96
2021/08/17 00:55:25;;;;;;;1.35;0.70;;;;;;;;;;6160683;23;20006;-95
2021/08/17 00:57:51;;;;;;;1.50;0.77;;;;;;;;;;6159568;23;20013;-96
2021/08/17 01:00:18;;;;;;;1.70;0.80;;;;;;;;;;6164830;23;20013;-96
2021/08/17 01:02:45;;;;;;;1.63;0.60;;;;;;;;;;6161425;23;20076;-96
2021/08/17 01:05:12;;;;;;;;;;;22.10;59.60;;;;;;6161833;23;20068;-96
2021/08/17 01:07:38;;;;;;;6.70;1.48;;;;;;;;;;6137015;23;19900;-96
2021/08/17 01:10:05;;;;;;;1.80;0.77;;;;;;;;;;6163505;23;19989;-95
2021/08/17 01:12:33;;;;;;;0.98;0.85;;;;;;;;;;6166314;23;20010;-96
2021/08/17 01:14:59;;;;;;;4.03;0.90;;;;;;;;;;6162317;23;20080;-96
2021/08/17 01:17:27;;;;;;;1.70;0.95;;;;;;;;;;6138037;23;20010;-95
2021/08/17 01:19:53;;;;;;;2.78;1.02;;;;;;;;;;6163930;23;20028;-96
2021/08/17 01:22:21;;;;;;;2.70;1.33;;;;;;;;;;6162968;23;20029;-96
2021/08/17 01:24:47;;;;;;;5.55;0.70;;;;;;;;;;6161187;23;20017;-96
2021/08/17 01:27:13;;;;;;;8.13;1.17;;;;;;;;;;6159980;23;20010;-96
2021/08/17 01:29:40;;;;;;;1.88;0.70;;;;;;;;;;6161150;23;20010;-96
2021/08/17 01:32:07;;;;;;;2.13;0.57;;;;;;;;;;6164958;23;20006;-96
2021/08/17 01:34:34;;;;;;;2.60;0.90;;;;;;;;;;6161615;23;20057;-96
2021/08/17 01:37:00;;;;;;;2.08;1.17;;;;;;;;;;6161938;23;20029;-96
2021/08/17 01:39:26;;;;;;;3.17;1.38;;;;;;;;;;6158860;23;20001;-96
2021/08/17 01:41:52;;;;;;;0.60;0.57;;;;;;;;;;6159643;23;19997;-96
2021/08/17 01:44:18;;;;;;;3.15;0.68;;;;;;;;;;6159191;23;20009;-96
2021/08/17 01:46:45;;;;;;;0.80;0.77;;;;;;;;;;6157402;23;20055;-96
2021/08/17 01:49:20;;;;;;;1.27;0.70;;;;;;;;;;6157537;23;20016;-96
2021/08/17 01:51:46;;;;;;;1.45;1.05;;;;;;;;;;6159515;23;20045;-95
2021/08/17 01:54:14;;;;;;;2.63;1.00;;;;;;;;;;6156465;23;20009;-96
2021/08/17 01:56:40;;;;;;;4.63;0.73;;;;;;;;;;6155593;23;20260;-96
2021/08/17 01:59:06;;;;;;;3.13;0.75;;;;;;;;;;6156503;23;20005;-95
2021/08/17 02:01:32;;;;;;;1.35;0.60;;;;;;;;;;6157107;23;20017;-96
2021/08/17 02:03:58;;;;;;;1.38;0.68;;;;;;;;;;6157743;23;20013;-96
2021/08/17 02:06:24;;;;;;;2.15;0.80;;;;;;;;;;6159759;23;20005;-96
2021/08/17 02:08:50;;;;;;;1.33;0.70;;;;;;;;;;6158587;23;20018;-96
2021/08/17 02:11:16;;;;;;;2.35;0.70;;;;;;;;;;6156689;23;20009;-94
2021/08/17 02:13:43;;;;;;;1.67;1.05;;;;;;;;;;6157364;23;20460;-95
2021/08/17 02:16:09;;;;;;;3.22;1.13;;;;;;;;;;6160242;23;20337;-95
2021/08/17 02:18:36;;;;;;;1.05;0.63;;;;;;;;;;6159689;23;20006;-95
2021/08/17 02:21:02;;;;;;;2.57;1.13;;;;;;;;;;6158045;23;20080;-96
2021/08/17 02:23:29;;;;;;;2.73;0.57;;;;;;;;;;6160822;23;20013;-95
2021/08/17 02:25:55;;;;;;;3.25;1.02;;;;;;;;;;6159746;23;20076;-96
2021/08/17 02:28:21;;;;;;;7.68;1.05;;;;;;;;;;6158009;23;20009;-96
2021/08/17 02:30:48;;;;;;;2.05;1.30;;;;;;;;;;6156970;23;20005;-96
2021/08/17 02:33:14;;;;;;;2.17;1.13;;;;;;;;;;6157300;23;20001;-96
2021/08/17 02:35:40;;;;;;;1.13;0.77;;;;;;;;;;6159518;23;20002;-95
2021/08/17 02:38:07;;;;;;;13.00;1.20;;;;;;;;;;6157226;23;20033;-96
2021/08/17 02:40:33;;;;;;;1.58;0.88;;;;;;;;;;6156918;23;20237;-96
2021/08/17 02:42:59;;;;;;;1.85;0.90;;;;;;;;;;6158415;23;20001;-95
2021/08/17 02:45:25;;;;;;;1.05;0.90;;;;;;;;;;6157414;23;20033;-96
2021/08/17 02:47:55;;;;;;;7.45;1.10;;;;;;;;;;6157183;23;20033;-95
2021/08/17 02:50:21;;;;;;;2.30;0.98;;;;;;;;;;6159610;23;20056;-96
2021/08/17 02:52:47;;;;;;;1.08;0.60;;;;;;;;;;6136180;23;20357;-96
2021/08/17 02:55:13;;;;;;;4.50;0.90;;;;;;;;;;6158669;23;20437;-96
2021/08/17 02:57:46;;;;;;;3.38;0.90;;;;;;;;;;6161198;23;20052;-96
2021/08/17 03:00:13;;;;;;;1.42;0.63;;;;;;;;;;6160875;23;20002;-96
2021/08/17 03:02:39;;;;;;;2.00;0.80;;;;;;;;;;6160657;23;20065;-96
2021/08/17 03:05:06;;;;;;;1.40;1.00;;;;;;;;;;6159641;23;20096;-94
2021/08/17 03:07:32;;;;;;;1.75;1.13;;;;;;;;;;6159310;23;20899;-95
2021/08/17 03:09:58;;;;;;;1.85;0.95;;;;;;;;;;6158622;23;20088;-95
2021/08/17 03:12:24;;;;;;;3.05;0.93;;;;;;;;;;6157881;23;20002;-95
2021/08/17 03:14:50;;;;;;;2.78;1.33;;;;;;;;;;6158448;23;20097;-95
2021/08/17 03:17:16;;;;;;;4.43;1.73;;;;;;;;;;6158096;23;20032;-95
2021/08/17 03:19:42;;;;;;;4.47;1.13;;;;;;;;;;6158320;23;20344;-95
2021/08/17 03:22:09;;;;;;;10.02;2.05;;;;;;;;;;6158076;23;20013;-95
2021/08/17 03:24:35;;;;;;;3.83;2.42;;;;;;;;;;6155512;23;20524;-95
2021/08/17 03:27:01;;;;;;;5.53;1.38;;;;;;;;;;6156082;23;20001;-96
2021/08/17 03:29:27;;;;;;;2.25;1.20;;;;;;;;;;6156763;23;20040;-95
2021/08/17 03:31:53;;;;;;;4.22;1.35;;;;;;;;;;6156473;23;20064;-95
2021/08/17 03:34:19;;;;;;;3.42;0.95;;;;;;;;;;6156169;23;20033;-95
2021/08/17 03:36:45;;;;;;;2.75;1.35;;;;;;;;;;6157821;23;20001;-96
2021/08/17 03:39:11;;;;;;;3.67;2.00;;;;;;;;;;6157785;23;20036;-96
2021/08/17 03:41:37;;;;;;;2.85;1.45;;;;;;;;;;6155910;23;20069;-95
2021/08/17 03:44:03;;;;;;;1.65;1.15;;;;;;;;;;6155016;23;20040;-95
2021/08/17 03:46:29;;;;;;;5.05;1.60;;;;;;;;;;6157040;23;20483;-96
2021/08/17 03:48:56;;;;;;;3.67;1.58;;;;;;;;;;6158950;23;20056;-95
2021/08/17 03:51:22;;;;;;;4.65;1.75;;;;;;;;;;6158892;23;20006;-96
2021/08/17 03:53:48;;;;;;;1.77;1.33;;;;;;;;;;6158968;23;20006;-96
2021/08/17 03:56:14;;;;;;;3.35;1.42;;;;;;;;;;6158067;23;20052;-95
2021/08/17 03:58:40;;;;;;;3.13;1.67;;;;;;;;;;6156829;23;20021;-96
2021/08/17 04:01:06;;;;;;;5.10;1.70;;;;;;;;;;6158543;23;20025;-96
2021/08/17 04:03:33;;;;;;;3.80;2.30;;;;;;;;;;6157051;23;20040;-96
2021/08/17 04:05:59;;;;;;;3.20;1.92;;;;;;;;;;6159883;23;20001;-95
2021/08/17 04:08:25;;;;;;;5.25;1.95;;;;;;;;;;6158450;23;20090;-96
2021/08/17 04:10:51;;;;;;;3.70;1.90;;;;;;;;;;6160255;23;20006;-95
2021/08/17 04:13:17;;;;;;;2.97;1.52;;;;;;;;;;6159132;23;20016;-96
2021/08/17 04:15:43;;;;;;;6.93;2.22;;;;;;;;;;6159858;23;20006;-96
2021/08/17 04:18:09;;;;;;;4.07;2.03;;;;;;;;;;6158337;23;20120;-96
2021/08/17 04:20:36;;;;;;;4.60;2.35;;;;;;;;;;6156427;23;20016;-96
2021/08/17 04:23:02;;;;;;;5.15;1.90;;;;;;;;;;6158795;23;20005;-95
2021/08/17 04:25:28;;;;;;;2.95;2.08;;;;;;;;;;6158269;23;20005;-96
2021/08/17 04:27:54;;;;;;;3.97;2.15;;;;;;;;;;6156849;23;20088;-96
2021/08/17 04:30:20;;;;;;;4.35;2.20;;;;;;;;;;6158296;23;20078;-96
2021/08/17 04:32:46;;;;;;;5.63;2.05;;;;;;;;;;6157065;23;20008;-96
2021/08/17 04:35:13;;;;;;;5.93;2.33;;;;;;;;;;6157221;23;20009;-95
2021/08/17 04:37:40;;;;;;;6.97;1.98;;;;;;;;;;6159828;23;20080;-96
2021/08/17 04:40:06;;;;;;;6.78;3.42;;;;;;;;;;6161679;23;20005;-96
2021/08/17 04:42:32;;;;;;;8.52;2.47;;;;;;;;;;6160721;23;20044;-96
2021/08/17 04:45:00;;;;;;;3.63;1.75;;;;;;;;;;6159348;23;20013;-96
2021/08/17 04:47:26;;;;;;;7.05;3.20;;;;;;;;;;6161633;23;20013;-95
2021/08/17 04:49:52;;;;;;;11.85;3.35;;;;;;;;;;6162736;23;20013;-95
2021/08/17 04:52:19;;;;;;;10.27;4.70;;;;;;;;;;6163592;23;20009;-96
2021/08/17 04:54:46;;;;;;;11.15;2.58;;;;;;;;;;6159578;23;20053;-96
2021/08/17 04:57:13;;;;;;;;;;;19.10;62.70;;;;;;6158923;23;20108;-96
2021/08/17 04:59:39;;;;;;;;;;;19.00;62.90;;;;;;6157034;23;19900;-95
2021/08/17 05:02:05;;;;;;;4.93;2.97;;;;;;;;;;6130255;23;19979;-94
2021/08/17 05:04:31;;;;;;;6.53;2.55;;;;;;;;;;6155033;23;20033;-96
2021/08/17 05:06:57;;;;;;;15.15;3.47;;;;;;;;;;6160178;23;20025;-96
2021/08/17 05:09:25;;;;;;;5.32;2.53;;;;;;;;;;6159103;23;20005;-96
2021/08/17 05:11:52;;;;;;;6.30;2.80;;;;;;;;;;6136993;23;20009;-96
2021/08/17 05:14:18;;;;;;;5.57;2.40;;;;;;;;;;6156856;23;20001;-96
2021/08/17 05:16:44;;;;;;;6.22;2.30;;;;;;;;;;6153788;23;20026;-95
2021/08/17 05:19:10;;;;;;;4.32;2.08;;;;;;;;;;6159287;23;20006;-95
2021/08/17 05:21:38;;;;;;;10.45;3.25;;;;;;;;;;6138875;23;20032;-96
2021/08/17 05:24:05;;;;;;;4.90;2.08;;;;;;;;;;6160102;23;20092;-95
2021/08/17 05:26:31;;;;;;;7.70;3.17;;;;;;;;;;6161196;23;20016;-89
2021/08/17 05:28:57;;;;;;;5.45;3.05;;;;;;;;;;6153456;23;20088;-89
2021/08/17 05:31:23;;;;;;;13.80;2.45;;;;;;;;;;6153698;23;20006;-88
2021/08/17 05:33:49;;;;;;;5.80;2.65;;;;;;;;;;6153857;23;20503;-89
2021/08/17 05:36:15;;;;;;;5.00;2.60;;;;;;;;;;6152851;23;20006;-89
2021/08/17 05:38:41;;;;;;;7.57;3.80;;;;;;;;;;6151586;23;20333;-90
2021/08/17 05:41:07;;;;;;;5.38;2.58;;;;;;;;;;6143025;23;20063;-89
2021/08/17 05:43:33;;;;;;;5.15;2.75;;;;;;;;;;6146172;23;20100;-90
2021/08/17 05:46:03;;;;;;;8.00;2.42;;;;;;;;;;6151659;23;20072;-89
2021/08/17 05:48:29;;;;;;;5.68;2.30;;;;;;;;;;6151352;23;20012;-88
2021/08/17 05:50:55;;;;;;;3.70;1.60;;;;;;;;;;6149990;23;20068;-89
2021/08/17 05:53:21;;;;;;;4.25;1.90;;;;;;;;;;6148879;23;20009;-89
2021/08/17 05:55:47;;;;;;;5.65;3.08;;;;;;;;;;6150173;23;20164;-90
2021/08/17 05:58:13;;;;;;;5.40;2.42;;;;;;;;;;6148208;23;20049;-84
2021/08/17 06:00:39;;;;;;;3.15;2.75;;;;;;;;;;6148225;23;20085;-86
2021/08/17 06:03:05;;;;;;;4.90;1.77;;;;;;;;;;6146285;23;20033;-84
2021/08/17 06:05:31;;;;;;;7.63;3.00;;;;;;;;;;6147819;23;20020;-84
2021/08/17 06:07:57;;;;;;;8.43;3.28;;;;;;;;;;6148411;23;20008;-82
2021/08/17 06:10:23;;;;;;;5.57;3.35;;;;;;;;;;6147557;23;20006;-81
2021/08/17 06:12:49;;;;;;;5.50;2.33;;;;;;;;;;6144421;23;20081;-81
2021/08/17 06:15:15;;;;;;;5.93;2.63;;;;;;;;;;6148638;23;20033;-80
2021/08/17 06:17:41;;;;;;;10.48;3.33;;;;;;;;;;6147826;23;20241;-81
2021/08/17 06:20:09;;;;;;;10.23;3.13;;;20.60;60.20;;;;;;6149686;23;20013;-81
2021/08/17 06:22:35;;;;;;;5.90;2.65;;;;;;;;;;6148656;23;20006;-82
2021/08/17 06:25:02;;;;;;;8.05;2.75;;;21.00;60.20;;;;;;6148271;23;20610;-80
2021/08/17 06:27:28;;;;;;;4.43;2.08;;;;;;;;;;6149659;23;20052;-81
2021/08/17 06:29:54;;;;;;;5.68;2.15;;;;;;;;;;6150288;23;20010;-85
2021/08/17 06:32:20;;;;;;;5.70;2.40;;;21.30;59.20;;;;;;6147613;23;20001;-85
2021/08/17 06:34:47;;;;;;;7.55;3.13;;;21.30;59.70;;;;;;6149405;23;20488;-86
2021/08/17 06:37:13;;;;;;;6.68;2.78;;;;;;;;;;6123775;23;20017;-83
2021/08/17 06:39:39;;;;;;;6.53;2.50;;;;;;;;;;6150163;23;20005;-80
2021/08/17 06:42:05;;;;;;;9.15;3.38;;;;;;;;;;6149238;23;20009;-80
2021/08/17 06:44:32;;;;;;;5.57;3.00;;;;;;;;;;6149370;23;20032;-80
2021/08/17 06:46:58;;;;;;;7.68;3.45;;;;;;;;;;6148064;23;20012;-80
2021/08/17 06:49:24;;;;;;;10.32;3.83;;;;;;;;;;6149744;23;20006;-81
2021/08/17 06:51:49;;;;;;;7.68;3.90;;;;;;;;;;6148706;23;20391;-81
2021/08/17 06:54:16;;;;;;;9.02;3.15;;;;;;;;;;6149748;23;20005;-80
2021/08/17 06:56:42;;;;;;;8.05;3.53;;;;;;;;;;6148713;23;20028;-81
2021/08/17 06:59:07;;;;;;;5.22;2.85;;;;;;;;;;6150164;23;20014;-80
2021/08/17 07:01:33;;;;;;;10.68;4.00;;;;;;;;;;6148760;23;20027;-81
2021/08/17 07:03:59;;;;;;;5.32;2.70;;;;;;;;;;6149212;23;20016;-81
2021/08/17 07:06:28;;;;;;;11.68;3.65;;;;;;;;;;6148733;23;20360;-81
2021/08/17 07:08:55;;;;;;;7.65;3.72;;;;;;;;;;6150269;23;20614;-80
2021/08/17 07:11:21;;;;;;;7.10;3.72;;;;;;;;;;6151554;23;20068;-81
2021/08/17 07:13:47;;;;;;;6.30;2.95;;;;;;;;;;6152158;23;20006;-80
2021/08/17 07:16:13;;;;;;;6.28;3.25;;;;;;;;;;6151878;23;20014;-81
2021/08/17 07:18:39;;;;;;;10.23;2.95;;;;;;;;;;6151321;23;20009;-82
2021/08/17 07:21:05;;;;;;;5.15;2.47;;;;;;;;;;6151297;23;20060;-81
2021/08/17 07:23:31;;;;;;;7.63;3.55;;;;;;;;;;6151155;23;20049;-80
2021/08/17 07:25:57;;;;;;;5.45;2.40;;;;;;;;;;6150422;23;20445;-80
2021/08/17 07:28:23;;;;;;;9.93;2.83;;;;;;;;;;6150046;23;20005;-81
2021/08/17 07:30:49;;;;;;;7.47;3.85;;;22.80;53.90;;;;;;6152024;23;20029;-91
2021/08/17 07:33:16;;;;;;;8.85;3.78;;;;;;;;;;6129572;23;20076;-94
2021/08/17 07:35:42;;;;;;;8.52;3.70;;;;;;;;;;6152984;23;20052;-93
2021/08/17 07:38:08;;;;;;;5.57;2.90;;;;;;;;;;6154194;23;20084;-91
2021/08/17 07:40:34;;;;;;;6.93;3.53;;;;;;;;;;6155237;23;20001;-95
2021/08/17 07:43:00;;;;;;;7.15;3.90;;;;;;;;;;6153764;23;20009;-92
2021/08/17 07:45:27;;;;;;;6.82;2.78;;;;;;;;;;6155854;23;20598;-94
2021/08/17 07:47:53;;;;;;;9.67;2.70;;;;;;;;;;6155536;23;20005;-93
2021/08/17 07:50:19;;;;;;;5.65;2.72;;;;;;;;;;6155238;23;20085;-93
2021/08/17 07:52:45;;;;;;;6.15;3.35;;;;;;;;;;6155095;23;20013;-93
2021/08/17 07:55:12;;;;;;;6.85;2.75;;;;;;;;;;6155369;23;20028;-92
2021/08/17 07:57:39;;;;;;;;;;;21.70;57.00;;;;;;6155582;23;20087;-93
2021/08/17 08:00:07;;;;;;;8.45;4.40;;;;;;;;;;6129751;23;19987;-91
2021/08/17 08:02:33;;;;;;;8.50;3.20;;;;;;;;;;6153050;23;20009;-91
2021/08/17 08:04:59;;;;;;;7.20;4.07;;;;;;;;;;6154182;23;20010;-90
2021/08/17 08:07:25;;;;;;;8.23;3.47;;;;;;;;;;6153890;23;20002;-94
2021/08/17 08:09:54;;;;;;;5.53;3.63;;;;;;;;;;6155230;23;20100;-94
2021/08/17 08:12:20;;;;;;;10.43;4.05;;;;;;;;;;6153557;23;20482;-93
2021/08/17 08:14:46;;;;;;;9.23;3.08;;;;;;;;;;6154224;23;20006;-96
2021/08/17 08:17:12;;;;;;;10.70;4.07;;;;;;;;;;6162351;23;20101;-93
2021/08/17 08:19:38;;;;;;;6.53;3.80;;;;;;;;;;6157949;23;20009;-96
2021/08/17 08:22:05;;;;;;;7.45;3.55;;;;;;;;;;6155642;23;20001;-95
2021/08/17 08:24:31;;;;;;;9.93;3.92;;;;;;;;;;6155251;23;20025;-94
2021/08/17 08:26:57;;;;;;;10.07;4.25;;;;;;;;;;6155810;23;20009;-92
2021/08/17 08:29:23;;;;;;;9.48;4.90;;;;;;;;;;6154966;23;20009;-90
2021/08/17 08:31:50;;;;;;;9.52;3.22;;;;;;;;;;6153261;23;20021;-90
2021/08/17 08:34:16;;;;;;;5.85;3.00;;;;;;;;;;6154215;23;20005;-91
2021/08/17 08:36:42;;;;;;;8.40;3.78;;;;;;;;;;6153132;23;20356;-91
2021/08/17 08:39:08;;;;;;;8.77;4.30;;;;;;;;;;6153983;23;20005;-90
2021/08/17 08:41:34;;;;;;;10.20;3.50;;;;;;;;;;6152667;23;20008;-89
2021/08/17 08:44:00;;;;;;;5.78;3.47;;;;;;;;;;6153471;23;20013;-95
2021/08/17 08:46:29;;;;;;;11.13;3.70;;;21.80;54.40;;;;;;6153958;23;20021;-92
2021/08/17 08:48:59;;;;;;;13.15;3.78;;;;;;;;;;6155407;23;20087;-95
2021/08/17 08:51:25;;;;;;;7.32;2.42;;;;;;;;;;6154638;23;20036;-95
2021/08/17 08:53:51;;;;;;;10.48;2.80;;;;;;;;;;6153940;23;20060;-89
2021/08/17 08:56:17;;;;;;;8.45;3.20;;;;;;;;;;6153997;23;20022;-92
2021/08/17 08:58:43;;;;;;;7.40;2.47;;;;;;;;;;6153396;23;20026;-93
2021/08/17 09:01:10;;;;;;;5.85;2.67;;;;;;;;;;6153335;23;20008;-90
2021/08/17 09:03:46;;;;;;;6.03;2.25;;;;;;;;;;6152887;23;20368;-94
2021/08/17 09:06:20;;;;;;;8.33;2.10;;;;;;;;;;6153412;23;20322;-94
2021/08/17 09:08:46;;;;;;;2.33;1.25;;;;;;;;;;6153399;23;20001;-91
2021/08/17 09:11:16;;;;;;;4.10;2.33;;;;;;;;;;6154223;23;20025;-93
2021/08/17 09:13:42;;;;;;;6.13;2.00;;;;;;;;;;6154765;23;20013;-93
2021/08/17 09:16:28;;;;;;;6.28;1.92;;;23.00;47.00;;;;;;6153108;23;20001;-91
2021/08/17 09:18:54;;;;;;;3.50;1.55;;;;;;;;;;6127936;23;20005;-93
2021/08/17 09:21:53;;;;;;;4.88;2.00;;;;;;;;;;6154550;23;20025;-90
2021/08/17 09:24:20;;;;;;;2.78;1.27;;;;;;;;;;6064542;23;20090;-92
2021/08/17 09:26:48;;;;;;;3.75;1.60;;;;;;;;;;6040641;23;20295;-94
2021/08/17 09:29:22;;;;;;;5.70;1.83;;;;;;;;;;6065115;23;20034;-93
2021/08/17 09:31:50;;;;;;;4.85;1.38;;;;;;;;;;6040053;23;20006;-93
2021/08/17 09:34:16;;;;;;;4.82;1.60;;;;;;;;;;6064704;23;20003;-91
2021/08/17 09:36:43;;;;;;;5.50;1.83;;;;;;;;;;6040349;23;20007;-93
2021/08/17 09:39:09;;;;;;;5.75;1.08;;;;;;;;;;6064977;23;20095;-91
2021/08/17 09:41:35;;;;;;;5.20;1.93;;;;;;;;;;6040935;23;20058;-95
2021/08/17 09:46:39;;;;;;;5.53;1.92;;;;;;;;;;6149979;23;20080;-96
2021/08/17 09:49:18;;;;;;;4.43;1.85;;;;;;;;;;6160512;23;20024;-96
2021/08/17 09:51:45;;;;;;;5.75;1.65;;;;;;;;;;6154587;23;20012;-93
2021/08/17 09:54:15;;;;;;;5.35;1.83;;;;;;;;;;6155972;23;20068;-92
2021/08/17 09:56:42;;;;;;;2.70;1.88;;;;;;;;;;6153529;23;20009;-92
2021/08/17 09:59:08;;;;;;;6.03;3.30;;;;;;;;;;6154089;23;20028;-91
2021/08/17 10:01:36;;;;;;;3.20;1.50;;;;;;;;;;6154250;23;20345;-92
2021/08/17 10:04:02;;;;;;;5.70;1.77;;;;;;;;;;6154081;23;20005;-91
2021/08/17 10:06:28;;;;;;;5.03;1.23;;;;;;;;;;6152244;23;20024;-89
2021/08/17 10:08:57;;;;;;;5.38;2.40;;;26.00;41.60;;;;;;6151236;23;20013;-86
2021/08/17 10:11:23;;;;;;;4.63;1.88;;;;;;;;;;6150945;23;20436;-86
2021/08/17 10:13:53;;;;;;;4.00;1.63;;;26.80;39.40;;;;;;6151301;23;20002;-87
2021/08/17 10:16:19;;;;;;;6.55;2.47;;;;;;;;;;6125096;23;20014;-85
2021/08/17 10:18:45;;;;;;;2.80;1.52;;;26.50;39.90;;;;;;6151915;23;20064;-88
2021/08/17 10:21:16;;;;;;;6.25;1.75;;;26.30;40.90;;;;;;6151829;23;20006;-89
2021/08/17 10:23:44;;;;;;;5.90;2.13;;;;;;;;;;6152665;23;20010;-88
2021/08/17 10:26:29;;;;;;;13.18;2.85;;;26.50;39.30;;;;;;6151661;23;20444;-92
2021/08/17 10:28:55;;;;;;;7.32;2.42;;;;;;;;;;6126974;23;20041;-88
2021/08/17 10:31:24;;;;;;;6.82;2.70;;;26.30;38.40;;;;;;6151899;23;20006;-88
2021/08/17 10:34:04;;;;;;;9.70;2.25;;;26.40;44.60;;;;;;6127291;23;20043;-89
2021/08/17 10:36:30;;;;;;;4.25;2.25;;;;;;;;;;6127425;23;20016;-90
2021/08/17 10:38:56;;;;;;;6.70;2.58;;;;;;;;;;6153130;23;20006;-88
2021/08/17 10:41:28;;;;;;;4.50;1.65;;;26.90;38.00;;;;;;6151433;23;20077;-89
2021/08/17 10:43:55;;;;;;;4.90;1.30;;;;;;;;;;6154162;23;20080;-88
2021/08/17 10:46:43;;;;;;;4.30;2.00;;;27.80;37.30;;;;;;6155114;23;20022;-89
2021/08/17 10:49:24;;;;;;;6.80;3.00;;;28.00;37.00;;;;;;6155586;23;20040;-89
2021/08/17 10:51:51;;;;;;;10.73;2.70;;;27.60;37.40;;;;;;6155588;23;20015;-89
2021/08/17 10:54:17;;;;;;;4.85;1.45;;;;;;;;;;6128893;23;20010;-89
2021/08/17 10:56:47;;;;;;;6.28;2.00;;;26.70;39.10;;;;;;6153718;23;20071;-88
2021/08/17 10:59:13;;;;;;;6.95;2.88;;;;;;;;;;6129140;23;20040;-88
2021/08/17 11:01:42;;;;;;;4.90;2.78;;;26.20;38.90;;;;;;6155148;23;20029;-90
2021/08/17 11:04:18;;;;;;;8.57;2.65;;;;;;;;;;6155541;23;20084;-88
2021/08/17 11:06:44;;;;;;;9.85;3.40;;;25.80;38.90;;;;;;6153104;23;20448;-88
2021/08/17 11:09:37;;;;;;;7.28;2.60;;;25.70;41.60;;;;;;6154805;23;20075;-88
2021/08/17 11:12:09;;;;;;;8.75;3.20;;;25.60;41.00;;;;;;6128755;23;20010;-88
2021/08/17 11:14:36;;;;;;;7.35;3.58;;;25.50;38.90;;;;;;6129703;23;20427;-89
2021/08/17 11:17:11;;;;;;;4.75;1.85;;;25.50;41.20;;;;;;6128468;23;20029;-88
2021/08/17 11:19:51;;;;;;;5.50;3.17;;;25.50;39.30;;;;;;6155254;23;20053;-89
2021/08/17 11:22:19;;;;;;;5.38;2.90;;;25.80;41.30;;;;;;6129236;23;20029;-88
2021/08/17 11:24:48;;;;;;;7.43;3.03;;;25.80;39.00;;;;;;6154382;23;20017;-88
2021/08/17 11:27:14;;;;;;;7.85;3.33;;;;;;;;;;6154814;23;20820;-87
2021/08/17 11:29:46;;;;;;;5.60;2.20;;;26.50;40.60;;;;;;6153233;23;20014;-88
2021/08/17 11:32:43;;;;;;;6.50;2.28;;;26.70;39.80;;;;;;6155538;23;20002;-88
2021/08/17 11:35:15;;;;;;;5.35;1.95;;;26.60;38.60;;;;;;6154465;23;20009;-88
2021/08/17 11:37:46;;;;;;;6.32;2.78;;;26.20;39.30;;;;;;6127952;23;20001;-88
2021/08/17 11:40:14;;;;;;;4.20;2.25;;;26.10;40.60;;;;;;6154785;23;20009;-89
2021/08/17 11:42:42;;;;;;;6.63;2.85;;;26.00;39.70;;;;;;6154515;23;20010;-89
2021/08/17 11:45:18;;;;;;;7.68;2.63;;;26.00;39.30;;;;;;6153860;23;20098;-88
2021/08/17 11:47:45;;;;;;;6.15;2.55;;;25.90;39.70;;;;;;6128616;23;20002;-89
2021/08/17 11:50:16;;;;;;;5.78;2.40;;;25.70;39.30;;;;;;6128598;23;20072;-87
2021/08/17 11:52:43;;;;;;;6.43;2.17;;;25.70;40.30;;;;;;6153060;23;20021;-90
2021/08/17 11:55:15;;;;;;;6.93;2.90;;;;;;;;;;6127564;23;20056;-87
2021/08/17 11:58:05;;;;;;;5.60;2.67;;;25.50;38.60;;;;;;6153880;23;20002;-89
2021/08/17 12:00:32;;;;;;;7.55;3.20;;;25.50;39.00;;;;;;6129345;23;20009;-88
2021/08/17 12:03:04;;;;;;;6.28;2.53;;;25.60;41.70;;;;;;6155909;23;20007;-94
2021/08/17 12:05:33;;;;;;;4.28;2.55;;;;;;;;;;6129025;23;20036;-93
2021/08/17 12:08:14;;;;;;;5.68;3.00;;;;;;;;;;6155673;23;20004;-95
2021/08/17 12:10:41;;;;;;;7.32;2.60;;;;;;;;;;6152818;23;20009;-90
2021/08/17 12:13:14;;;;;;;7.03;2.08;;;;;;;;;;6155885;23;20002;-96
2021/08/17 12:15:44;;;;;;;5.65;3.17;;;;;;;;;;6154781;23;20036;-92
2021/08/17 12:18:17;;;;;;;7.47;2.53;;;25.70;41.40;;;;;;6153742;23;20016;-91
2021/08/17 12:20:49;;;;;;;6.05;2.33;;;;;;;;;;6154806;23;20029;-90
2021/08/17 12:23:16;;;;;;;5.28;2.20;;;;;;;;;;6153725;23;20009;-90
2021/08/17 12:25:42;;;;;;;7.10;3.35;;;;;;;;;;6154150;23;20009;-90
2021/08/17 12:28:13;;;;;;;12.27;3.50;;;;;;;;;;6155114;23;20008;-90
2021/08/17 12:30:39;;;;;;;8.10;3.53;;;;;;;;;;6155152;23;20368;-91
2021/08/17 12:33:05;;;;;;;5.72;1.88;;;;;;;;;;6154124;23;20321;-91
2021/08/17 12:35:36;;;;;;;7.18;2.88;;;25.80;39.50;;;;;;6155081;23;20348;-95
2021/08/17 12:38:15;;;;;;;5.07;2.75;;;;;;;;;;6153121;23;20009;-89
2021/08/17 12:40:51;;;;;;;6.35;2.25;;;26.30;39.30;;;;;;6153350;23;20571;-88
2021/08/17 12:43:25;;;;;;;4.78;2.00;;;26.20;39.30;;;;;;6153200;23;20006;-88
2021/08/17 12:45:52;;;;;;;4.85;2.08;;;;;;;;;;6152707;23;20021;-88
2021/08/17 12:48:19;;;;;;;7.93;3.38;;;;;;;;;;6152708;23;20382;-86
2021/08/17 12:50:46;;;;;;;5.38;2.60;;;;;;;;;;6152159;23;20002;-87
2021/08/17 12:53:18;;;;;;;4.45;2.30;;;;;;;;;;6152638;23;20351;-84
2021/08/17 12:55:44;;;;;;;10.40;3.80;;;;;;;;;;6153141;23;20009;-91
2021/08/17 12:58:11;;;;;;;14.32;4.57;;;25.20;41.90;;;;;;6153253;23;20048;-90
2021/08/17 13:00:37;;;;;;;8.43;3.85;;;;;;;;;;6128141;23;20340;-93
2021/08/17 13:03:06;;;;;;;7.55;3.30;;;;;;;;;;6154968;23;20072;-94
2021/08/17 13:05:32;;;;;;;9.25;4.07;;;;;;;;;;6154432;23;20102;-95
2021/08/17 13:08:01;;;;;;;8.55;2.92;;;;;;;;;;6155753;23;20006;-95
2021/08/17 13:10:30;;;;;;;6.43;3.05;;;;;;;;;;6154336;23;20344;-94
2021/08/17 13:12:59;;;;;;;13.30;4.30;;;;;;;;;;6156255;23;20299;-93
2021/08/17 13:15:28;;;;;;;9.63;3.45;;;;;;;;;;6158614;23;20604;-95
2021/08/17 13:17:55;;;;;;;10.00;3.35;;;;;;;;;;6156787;23;20005;-91
2021/08/17 13:20:22;;;;;;;6.30;2.65;;;;;;;;;;6152703;23;20005;-89
2021/08/17 13:22:50;;;;;;;8.02;3.38;;;;;;;;;;6152179;23;20059;-90
2021/08/17 13:25:17;;;;;;;9.80;5.15;;;;;;;;;;6153581;23;20013;-88
2021/08/17 13:27:43;;;;;;;;;;;25.10;40.10;;;;;;6154759;23;20028;-94
2021/08/17 13:30:09;;;;;;;6.78;3.30;;;;;;;;;;6128337;23;19900;-91
2021/08/17 13:32:35;;;;;;;6.50;3.33;;;;;;;;;;6154112;23;20005;-92
2021/08/17 13:35:01;;;;;;;7.32;3.40;;;;;;;;;;6154745;23;20285;-92
2021/08/17 13:37:27;;;;;;;6.72;2.50;;;;;;;;;;6153631;23;20081;-87
2021/08/17 13:39:53;;;;;;;6.00;3.03;;;;;;;;;;6152635;23;20100;-89
2021/08/17 13:42:23;;;;;;;5.90;2.83;;;;;;;;;;6151827;23;20622;-90
2021/08/17 13:44:49;;;;;;;7.75;2.88;;;;;;;;;;6154571;23;20040;-94
2021/08/17 13:47:15;;;;;;;8.73;3.72;;;;;;;;;;6155242;23;20437;-93
2021/08/17 13:49:43;;;;;;;11.73;3.00;;;;;;;;;;6160376;23;20055;-95
2021/08/17 13:52:09;;;;;;;19.38;4.18;;;;;;;;;;6157441;23;20017;-95
2021/08/17 13:54:35;;;;;;;5.63;2.83;;;;;;;;;;6157591;23;20006;-95
2021/08/17 13:57:01;;;;;;;8.65;3.35;;;;;;;;;;6158758;23;20008;-95
2021/08/17 13:59:28;;;;;;;5.57;2.53;;;;;;;;;;6163494;23;20005;-96
2021/08/17 14:01:54;;;;;;;;;;;25.60;41.00;;;;;;6172840;23;20012;-95
2021/08/17 14:04:26;;;;;;;6.20;3.03;;;;;;;;;;6173635;23;19939;-96
2021/08/17 14:07:17;;;;;;;5.97;3.42;;;25.80;39.50;;;;;;6136280;23;20045;-96
2021/08/17 14:09:43;;;;;;;9.18;2.65;;;;;;;;;;6149089;23;20021;-96
2021/08/17 14:15:12;;;;;;;5.75;2.70;;;;;;;;;;6144498;23;20030;-96
2021/08/17 14:17:38;;;;;;;7.15;2.55;;;;;;;;;;6144465;23;20009;-95
2021/08/17 14:20:05;;;;;;;6.95;2.65;;;;;;;;;;6140628;23;20061;-95
2021/08/17 14:25:07;;;;;;;8.82;3.20;;;;;;;;;;6134564;23;20018;-96
2021/08/17 14:27:33;;;;;;;5.80;2.35;;;;;;;;;;6118187;23;20021;-96
2021/08/17 14:29:59;;;;;;;6.82;3.00;;;;;;;;;;6116881;23;20018;-96
2021/08/17 14:32:26;;;;;;;11.48;3.10;;;;;;;;;;6111906;23;20013;-96
2021/08/17 14:34:52;;;;;;;4.45;2.45;;;;;;;;;;6115309;23;20075;-96